OS70 weather

Al Qusayr Air Base
Al-Qusayr, Homs Governorate, Syria

Public forecast

Using degrees Celsius for public forecast. Weather courtesy of forecast.io.

Closest aviation weather report (METAR) to Al Qusayr Air Base

Closest report is Bassel Al-Assad International Airport, 58.6 nm (108.6 km) NNW. Retrieved 2019/12/09 18:00 UTC (2 minutes ago):

OSLK 091800Z 35008KT 9999 FEW026CB SCT030 BKN100 11/10 Q1013

Closest aviation forecast (TAF) to Al Qusayr Air Base

Forecast is more than 12 hours old.

Closest forecast is Bassel Al-Assad International Airport, 58.6 nm (108.6 km) NNW. Retrieved 2019/12/08 06:36 UTC (1 day ago):

TAF TAF OSLK 080500Z 0806/0906 25010G15KT 7000 SHRA FEW026CB SCT030 BKN100 TEMPO 0818/0903 11015G20KT SHRA FEW026CB SCT030 BKN100